Time;durP1;ratioP1;P1;durP2;ratioP2;P2;SDS_P1;SDS_P2;PMS_P1;PMS_P2;Temp;Humidity;BMP_temperature;BMP_pressure;BME280_temperature;BME280_humidity;BME280_pressure;Samples;Min_cycle;Max_cycle;Signal;HPM_P1;HPM_P2
2023/12/21 00:01:28;;;;;;;;;100.33;88.00;;;;;8.87;78.88;100440.13;146615;564;46020;-65
2023/12/21 00:04:51;;;;;;;;;81.33;72.00;;;;;8.84;78.78;100437.37;146612;597;46036;-66
2023/12/21 00:07:52;;;;;;;;;78.00;67.00;;;;;8.83;79.45;100442.47;146613;578;46012;-63
2023/12/21 00:11:03;;;;;;;;;75.00;63.00;;;;;8.85;79.12;100438.25;146607;698;46027;-65
2023/12/21 00:14:10;;;;;;;;;73.67;63.00;;;;;8.86;79.27;100440.94;146614;570;45020;-65
2023/12/21 00:17:11;;;;;;;;;77.67;66.67;;;;;8.83;79.42;100442.47;146606;586;47016;-64
2023/12/21 00:20:10;;;;;;;;;77.67;65.00;;;;;8.75;79.01;100437.78;146612;570;46021;-64
2023/12/21 00:23:18;;;;;;;;;76.67;64.67;;;;;8.68;79.06;100448.56;146606;570;46014;-65
2023/12/21 00:26:45;;;;;;;;;76.00;64.33;;;;;8.63;78.47;100457.81;146613;630;46020;-64
2023/12/21 00:30:04;;;;;;;;;77.00;65.00;;;;;8.56;78.28;100455.66;146631;616;45016;-65
2023/12/21 00:33:07;;;;;;;;;71.75;58.50;;;;;8.47;78.92;100453.50;146625;633;45020;-63
2023/12/21 00:36:06;;;;;;;;;74.75;59.75;;;;;8.38;78.86;100458.16;146626;595;45012;-64
2023/12/21 00:38:59;;;;;;;;;71.75;56.00;;;;;8.33;79.34;100459.53;146628;600;45010;-64
2023/12/21 00:42:15;;;;;;;;;71.50;58.75;;;;;8.30;79.55;100461.94;146626;596;46914;-65
2023/12/21 00:45:40;;;;;;;;;69.50;56.75;;;;;8.25;79.33;100464.25;146624;563;45020;-63
2023/12/21 00:48:56;;;;;;;;;;;;;;;;;;;;;
2023/12/21 00:52:02;;;;;;;;;68.25;52.50;;;;;8.16;80.25;100462.84;146627;626;45025;-63
2023/12/21 00:55:02;;;;;;;;;68.25;53.50;;;;;8.19;80.38;100457.87;146622;596;46017;-66
2023/12/21 00:57:57;;;;;;;;;74.33;64.33;;;;;8.27;80.90;100452.31;146628;585;45010;-64
2023/12/21 01:01:15;;;;;;;;;64.75;50.50;;;;;8.31;80.62;100443.94;146625;580;45016;-62
2023/12/21 01:04:31;;;;;;;;;65.25;51.50;;;;;3.65;79.29;99636.16;146629;635;45010;-61
2023/12/21 01:07:40;;;;;;;;;72.00;59.75;;;;;8.32;80.65;100439.69;146628;641;45012;-62
2023/12/21 01:11:04;;;;;;;;;66.25;50.75;;;;;3.57;79.43;99601.47;146628;581;45011;-63
2023/12/21 01:14:05;;;;;;;;;64.00;50.50;;;;;8.36;81.09;100433.87;146624;582;45016;-62
2023/12/21 01:17:21;;;;;;;;;58.00;45.75;;;;;4.59;80.29;99781.19;146628;647;45011;-63
2023/12/21 01:20:25;;;;;;;;;67.75;53.75;;;;;8.41;80.58;100429.91;146624;564;46010;-63
2023/12/21 01:23:45;;;;;;;;;;;;;;;;;;;;;
2023/12/21 01:26:40;;;;;;;;;55.00;43.50;;;;;8.47;81.21;100424.16;146627;613;45017;-63
2023/12/21 01:29:38;;;;;;;;;64.50;49.75;;;;;8.49;81.32;100423.44;146625;652;46010;-64
2023/12/21 01:32:44;;;;;;;;;60.75;48.00;;;;;8.53;81.68;100414.16;146627;611;45010;-63
2023/12/21 01:36:02;;;;;;;;;60.25;48.00;;;;;3.77;80.15;99583.03;146627;663;45020;-66
2023/12/21 01:39:00;;;;;;;;;75.75;59.50;;;;;8.59;81.24;100413.59;146624;571;45016;-66
2023/12/21 01:41:54;;;;;;;;;58.25;46.00;;;;;8.62;82.25;100408.59;146625;571;45020;-66
2023/12/21 01:44:52;;;;;;;;;59.75;46.00;;;;;8.64;81.88;100404.41;146625;694;45917;-64
2023/12/21 01:47:55;;;;;;;;;57.00;44.75;;;;;8.69;81.55;100405.53;146628;591;45010;-63
2023/12/21 01:51:08;;;;;;;;;69.00;54.25;;;;;8.75;81.40;100400.69;146625;635;45016;-63
2023/12/21 01:54:15;;;;;;;;;58.75;45.25;;;;;8.80;81.70;100401.81;146628;595;45020;-63
2023/12/21 01:57:13;;;;;;;;;66.00;51.00;;;;;8.86;81.61;100398.69;146626;592;45017;-66
2023/12/21 02:00:32;;;;;;;;;59.50;45.75;;;;;8.89;81.78;100394.56;146629;594;45010;-64
2023/12/21 02:03:40;;;;;;;;;56.00;44.50;;;;;6.47;80.74;99963.44;146626;585;45886;-65
2023/12/21 02:06:48;;;;;;;;;60.25;46.50;;;;;8.93;81.47;100380.97;146625;565;45012;-66
2023/12/21 02:09:57;;;;;;;;;61.00;48.00;;;;;8.93;81.69;100378.38;146624;615;45017;-65
2023/12/21 02:12:50;;;;;;;;;66.00;52.50;;;;;8.94;81.78;100368.91;146628;605;45010;-66
2023/12/21 02:15:51;;;;;;;;;65.25;50.50;;;;;8.92;81.89;100355.94;146627;591;45016;-65
2023/12/21 02:19:20;;;;;;;;;67.00;52.00;;;;;5.12;80.29;99695.19;146626;597;45020;-65
2023/12/21 02:22:26;;;;;;;;;62.50;48.75;;;;;8.93;81.68;100354.22;146629;577;45016;-65
2023/12/21 02:25:33;;;;;;;;;63.50;48.75;;;;;8.97;81.04;100349.31;146627;595;45021;-65
2023/12/21 02:28:54;;;;;;;;;63.00;48.00;;;;;9.01;80.80;100356.41;146612;668;45016;-66
2023/12/21 02:31:58;;;;;;;;;63.75;48.00;;;;;9.05;81.16;100344.50;146605;571;46021;-66
2023/12/21 02:34:59;;;;;;;;;57.75;45.50;;;;;9.08;81.39;100341.19;146605;605;46915;-67
2023/12/21 02:38:12;;;;;;;;;61.75;49.00;;;;;4.73;80.42;99576.56;146606;569;46012;-64
2023/12/21 02:41:10;;;;;;;;;62.00;47.75;;;;;9.11;81.20;100344.81;146605;594;46014;-65
2023/12/21 02:44:19;;;;;;;;;59.50;46.75;;;;;9.13;81.33;100335.47;146601;590;46916;-64
2023/12/21 02:47:24;;;;;;;;;58.75;46.75;;;;;9.18;81.20;100341.72;146605;648;46016;-64
2023/12/21 02:50:20;;;;;;;;;59.75;46.75;;;;;9.19;81.07;100343.53;146608;601;46020;-64
2023/12/21 02:53:41;;;;;;;;;57.75;45.00;;;;;4.96;80.50;99604.41;146608;563;46012;-64
2023/12/21 02:56:35;;;;;;;;;59.25;46.00;;;;;9.22;80.86;100343.69;146607;693;46010;-64
2023/12/21 02:59:43;;;;;;;;;;;;;;;;;;;;;
2023/12/21 03:02:50;;;;;;;;;56.75;45.00;;;;;9.29;81.49;100334.53;146608;575;46010;-64
2023/12/21 03:05:55;;;;;;;;;58.50;45.25;;;;;9.30;80.59;100341.47;146603;575;46016;-63
2023/12/21 03:09:04;;;;;;;;;;;;;;;;;;;;;
2023/12/21 03:11:57;;;;;;;;;58.00;46.00;;;;;9.34;80.58;100329.56;146603;617;46016;-64
2023/12/21 03:15:11;;;;;;;;;58.00;45.00;;;;;9.35;79.95;100323.59;146602;573;47010;-64
2023/12/21 03:18:21;;;;;;;;;61.50;48.00;;;;;9.36;80.05;100325.37;146604;616;46017;-64
2023/12/21 03:21:30;;;;;;;;;58.50;45.00;;;;;9.32;80.17;100316.56;146608;660;46010;-64
2023/12/21 03:24:31;;;;;;;;;57.75;44.00;;;;;9.32;80.76;100311.41;146605;587;49012;-64
2023/12/21 03:27:36;;;;;;;;;56.50;45.00;;;;;9.33;80.47;100304.50;146610;633;46010;-64
2023/12/21 03:30:45;;;;;;;;;;;;;;;;;;;;;
2023/12/21 03:33:57;;;;;;;;;55.50;42.50;;;;;9.33;79.93;100317.44;146605;607;46023;-64
2023/12/21 03:36:58;;;;;;;;;54.00;43.75;;;;;9.32;80.31;100316.56;146605;635;46016;-64
2023/12/21 03:40:20;;;;;;;;;51.25;41.00;;;;;9.34;79.62;100309.75;146608;564;46021;-64
2023/12/21 03:43:35;;;;;;;;;57.75;44.00;;;;;9.35;80.83;100315.84;146606;611;46016;-64
2023/12/21 03:46:31;;;;;;;;;53.50;42.25;;;;;9.33;80.40;100326.09;146607;583;46020;-64
2023/12/21 03:49:31;;;;;;;;;56.75;43.00;;;;;9.32;80.30;100326.91;146607;588;46014;-63
2023/12/21 03:52:39;;;;;;;;;52.75;42.75;;;;;9.33;80.88;100322.63;146608;695;46013;-63
2023/12/21 03:55:37;;;;;;;;;57.25;43.00;;;;;9.31;80.61;100321.66;146605;609;46012;-64
2023/12/21 03:58:54;;;;;;;;;51.25;42.50;;;;;9.28;80.75;100330.16;146609;580;46010;-63
2023/12/21 04:02:19;;;;;;;;;54.75;42.00;;;;;9.30;79.61;100330.22;146606;566;46014;-65
2023/12/21 04:05:37;;;;;;;;;53.75;42.50;;;;;5.44;79.25;99654.16;146611;630;46012;-64
2023/12/21 04:08:32;;;;;;;;;63.25;49.50;;;;;9.33;80.12;100327.81;146605;580;46017;-64
2023/12/21 04:11:34;;;;;;;;;58.50;44.75;;;;;9.33;80.66;100320.03;146608;573;46010;-64
2023/12/21 04:14:33;;;;;;;;;52.25;41.50;;;;;9.35;80.15;100327.06;146606;569;46014;-64
2023/12/21 04:17:49;;;;;;;;;58.00;44.00;;;;;9.39;79.20;100325.53;146607;710;46012;-64
2023/12/21 04:20:57;;;;;;;;;54.50;43.50;;;;;5.12;78.82;99582.16;146605;581;46016;-64
2023/12/21 04:24:14;;;;;;;;;56.75;44.00;;;;;5.25;78.43;99607.69;146608;580;46021;-63
2023/12/21 04:27:11;;;;;;;;;52.25;42.00;;;;;9.36;80.64;100320.19;146603;588;47012;-63
2023/12/21 04:30:06;;;;;;;;;60.25;47.25;;;;;9.37;80.17;100327.12;146607;576;46020;-63
2023/12/21 04:33:12;;;;;;;;;54.00;43.50;;;;;9.39;79.74;100331.56;146607;566;46012;-63
2023/12/21 04:36:18;;;;;;;;;56.75;44.75;;;;;9.40;80.38;100325.56;146606;612;45020;-64
2023/12/21 04:39:12;;;;;;;;;52.25;40.75;;;;;9.44;79.62;100318.87;146606;609;46014;-64
2023/12/21 04:42:22;;;;;;;;;55.75;44.25;;;;;9.45;79.11;100321.53;146607;577;46020;-65
2023/12/21 04:45:23;;;;;;;;;54.25;44.00;;;;;9.47;78.86;100330.28;146607;566;45017;-65
2023/12/21 04:48:28;;;;;;;;;59.50;45.75;;;;;9.45;79.12;100326.69;146607;574;46010;-65
2023/12/21 04:51:29;;;;;;;;;60.50;47.50;;;;;9.44;78.71;100324.06;146603;569;46016;-65
2023/12/21 04:54:34;;;;;;;;;;;;;;;;;;;;;
2023/12/21 04:57:53;;;;;;;;;63.00;49.00;;;;;9.45;77.91;100318.06;146604;569;46018;-65
2023/12/21 05:00:59;;;;;;;;;53.50;43.00;;;;;9.49;77.91;100319.97;146605;666;47010;-65
2023/12/21 05:04:07;;;;;;;;;48.50;37.50;;;;;9.51;78.06;100318.34;146606;590;46012;-65
2023/12/21 05:07:08;;;;;;;;;47.25;39.50;;;;;9.51;78.22;100323.53;146604;584;46914;-64
2023/12/21 05:10:17;;;;;;;;;54.75;43.25;;;;;9.46;78.26;100320.69;146603;578;46016;-65
2023/12/21 05:13:33;;;;;;;;;61.00;43.75;;;;;9.45;77.26;100324.13;146609;670;46020;-65
2023/12/21 05:16:28;;;;;;;;;55.00;43.50;;;;;9.44;77.18;100314.59;146605;589;46013;-64
2023/12/21 05:19:48;;;;;;;;;;;;;;;;;;;;;
2023/12/21 05:23:00;;;;;;;;;57.25;43.50;;;;;9.47;77.45;100317.31;146607;565;46016;-65
2023/12/21 05:26:02;;;;;;;;;54.75;42.00;;;;;9.49;77.12;100317.38;146605;572;46020;-65
2023/12/21 05:29:16;;;;;;;;;53.00;42.75;;;;;5.72;76.30;99658.22;146607;701;46014;-65
2023/12/21 05:32:30;;;;;;;;;52.75;42.50;;;;;9.51;77.13;100312.31;146609;672;46012;-65
2023/12/21 05:35:33;;;;;;;;;49.25;37.75;;;;;9.46;78.51;100307.75;146699;570;46012;-65
2023/12/21 05:38:33;;;;;;;;;53.00;41.00;;;;;9.53;78.07;100321.00;146614;589;46014;-67
2023/12/21 05:41:45;;;;;;;;;;;;;;;;;;;;;
2023/12/21 05:44:49;;;;;;;;;53.00;44.00;;;;;9.57;77.43;100328.13;146612;670;46016;-66
2023/12/21 05:47:58;;;;;;;;;50.00;41.00;;;;;9.56;77.42;100327.22;146612;780;46010;-65
2023/12/21 05:50:58;;;;;;;;;51.00;40.25;;;;;9.57;77.27;100334.19;146609;625;46032;-65
2023/12/21 05:53:56;;;;;;;;;53.50;43.00;;;;;9.60;77.13;100336.03;146613;589;46020;-66
2023/12/21 05:56:54;;;;;;;;;54.00;43.75;;;;;9.61;77.20;100330.94;146613;602;46017;-65
2023/12/21 05:59:58;;;;;;;;;;;;;;;;;;;;;
2023/12/21 06:03:01;;;;;;;;;55.25;45.00;;;;;9.62;77.24;100324.94;146614;601;46033;-66
2023/12/21 06:05:55;;;;;;;;;57.00;45.50;;;;;9.61;77.19;100325.75;146616;564;46010;-65
2023/12/21 06:09:00;;;;;;;;;57.50;46.25;;;;;9.64;77.09;100328.47;146609;603;46028;-66
2023/12/21 06:11:56;;;;;;;;;59.75;47.00;;;;;9.64;76.71;100336.25;146613;603;47021;-64
2023/12/21 06:14:55;;;;;;;;;59.75;47.00;;;;;9.65;76.97;100326.78;146613;628;46012;-66
2023/12/21 06:17:53;;;;;;;;;59.25;45.75;;;;;9.66;77.05;100332.06;146614;596;46020;-64
2023/12/21 06:20:45;;;;;;;;;55.00;44.50;;;;;9.67;76.74;100330.34;146612;594;46016;-64
2023/12/21 06:23:44;;;;;;;;;57.25;45.00;;;;;9.64;77.08;100325.91;146613;726;46020;-66
2023/12/21 06:26:52;;;;;;;;;54.75;43.25;;;;;9.56;76.83;100310.81;146609;576;46013;-67
2023/12/21 06:29:56;;;;;;;;;53.25;42.00;;;;;9.70;76.58;100325.31;146614;577;46020;-63
2023/12/21 06:33:05;;;;;;;;;53.00;42.75;;;;;9.73;76.49;100329.75;146610;565;46017;-64
2023/12/21 06:36:12;;;;;;;;;56.75;42.75;;;;;9.71;76.39;100335.72;146615;614;46020;-66
2023/12/21 06:39:38;;;;;;;;;52.50;42.75;;;;;9.69;76.24;100347.72;146610;571;46014;-65
2023/12/21 06:42:41;;;;;;;;;48.25;38.75;;;;;9.68;76.62;100350.22;146613;603;47011;-65
2023/12/21 06:45:47;;;;;;;;;43.50;36.25;;;;;9.70;76.13;100356.38;146610;596;46016;-64
2023/12/21 06:49:22;;;;;;;;;50.00;42.00;;;;;9.69;76.07;100339.97;146614;582;47011;-63
2023/12/21 06:52:24;;;;;;;;;47.25;39.00;;;;;9.68;76.65;100342.47;146614;616;46012;-67
2023/12/21 06:55:37;;;;;;;;;51.75;40.75;;;;;9.68;76.12;100345.94;146613;620;46020;-64
2023/12/21 06:58:44;;;;;;;;;47.00;37.50;;;;;9.63;75.77;100336.19;146612;611;46012;-65
2023/12/21 07:01:52;;;;;;;;;51.50;41.25;;;;;9.73;76.36;100348.75;146613;575;46029;-64
2023/12/21 07:04:51;;;;;;;;;48.75;38.50;;;;;9.75;75.78;100339.38;146611;580;46016;-64
2023/12/21 07:07:55;;;;;;;;;47.75;39.50;;;;;9.75;75.71;100351.41;146615;638;46010;-65
2023/12/21 07:10:54;;;;;;;;;53.75;42.50;;;;;9.72;75.84;100341.81;146610;565;46015;-64
2023/12/21 07:13:52;;;;;;;;;10.50;6.00;;;;;9.69;75.57;100349.44;146617;597;46020;-65
2023/12/21 07:16:44;;;;;;;;;50.25;39.00;;;;;9.67;75.72;100356.22;146616;614;46913;-66
2023/12/21 07:19:41;;;;;;;;;49.00;39.50;;;;;9.61;76.14;100351.63;146613;633;47010;-68
2023/12/21 07:22:51;;;;;;;;;52.00;41.75;;;;;9.61;75.64;100353.34;146609;641;46025;-66
2023/12/21 07:26:06;;;;;;;;;50.50;41.75;;;;;7.73;76.18;100027.75;146611;666;47015;-66
2023/12/21 07:29:05;;;;;;;;;50.00;40.00;;;;;9.61;76.21;100346.47;146609;564;47012;-64
2023/12/21 07:32:01;;;;;;;;;51.25;41.00;;;;;9.66;76.42;100344.12;146614;582;46020;-65
2023/12/21 07:35:02;;;;;;;;;49.50;40.25;;;;;9.74;76.57;100345.34;146611;575;46012;-63
2023/12/21 07:38:03;;;;;;;;;48.50;39.00;;;;;9.84;76.16;100355.31;146615;563;46020;-64
2023/12/21 07:41:11;;;;;;;;;50.50;39.50;;;;;9.94;76.33;100348.91;146612;589;46017;-64
2023/12/21 07:44:21;;;;;;;;;;;;;;;;;;;;;
2023/12/21 07:47:23;;;;;;;;;51.00;41.75;;;;;10.05;76.86;100354.59;146612;579;46034;-65
2023/12/21 07:50:20;;;;;;;;;50.75;40.75;;;;;10.07;76.77;100365.91;146612;622;46029;-64
2023/12/21 07:53:24;;;;;;;;;51.75;40.00;;;;;10.10;76.83;100377.31;146612;571;46016;-64
2023/12/21 07:56:22;;;;;;;;;52.25;42.00;;;;;10.16;76.48;100387.09;146614;645;46021;-64
2023/12/21 07:59:33;;;;;;;;;52.00;43.25;;;;;10.23;76.02;100393.44;146608;563;46016;-64
2023/12/21 08:02:40;;;;;;;;;52.50;43.25;;;;;10.28;76.38;100395.47;146615;580;46020;-64
2023/12/21 08:05:44;;;;;;;;;50.00;40.25;;;;;10.32;75.92;100399.09;146610;610;47012;-65
2023/12/21 08:08:37;;;;;;;;;51.25;41.50;;;;;10.39;75.59;100401.12;146613;580;47014;-65
2023/12/21 08:11:33;;;;;;;;;51.75;40.75;;;;;10.45;75.36;100401.44;146611;575;46915;-66
2023/12/21 08:14:37;;;;;;;;;56.00;43.75;;;;;10.52;74.88;100395.69;146613;589;46020;-64
2023/12/21 08:17:30;;;;;;;;;52.75;42.75;;;;;10.60;74.58;100391.78;146612;570;46016;-66
2023/12/21 08:20:47;;;;;;;;;;;;;;;;;;;;;
2023/12/21 08:23:47;;;;;;;;;52.25;42.00;;;;;10.85;74.06;100375.59;146609;676;46014;-64
2023/12/21 08:26:51;;;;;;;;;55.25;44.00;;;;;11.04;74.16;100368.63;146614;564;47010;-64
2023/12/21 08:30:00;;;;;;;;;58.00;45.00;;;;;11.39;74.88;100370.13;146610;570;46915;-64
2023/12/21 08:32:57;;;;;;;;;53.25;44.00;;;;;11.84;74.09;100366.75;146614;628;46021;-65
2023/12/21 08:35:56;;;;;;;;;45.50;35.75;;;;;12.24;70.65;100351.97;146609;585;46914;-64
2023/12/21 08:38:48;;;;;;;;;42.25;32.75;;;;;12.59;68.66;100346.34;146614;621;46010;-64
2023/12/21 08:41:55;;;;;;;;;40.00;32.25;;;;;12.87;67.85;100340.41;146612;577;46916;-65
2023/12/21 08:45:02;;;;;;;;;45.00;34.00;;;;;13.12;65.95;100336.97;146614;590;46020;-65
2023/12/21 08:47:55;;;;;;;;;40.00;32.75;;;;;13.32;65.26;100335.06;146608;565;46017;-65
2023/12/21 08:50:58;;;;;;;;;38.75;32.25;;;;;13.51;63.29;100323.53;146613;600;46010;-65
2023/12/21 08:53:57;;;;;;;;;31.00;29.50;;;;;13.59;62.68;100306.44;146610;629;46015;-64
2023/12/21 08:56:58;;;;;;;;;44.75;36.00;;;;;13.71;61.27;100305.97;146610;573;47020;-65
2023/12/21 08:59:51;;;;;;;;;42.25;34.50;;;;;13.72;62.11;100305.09;146609;577;46016;-64
2023/12/21 09:02:47;;;;;;;;;56.00;45.00;;;;;13.72;61.28;100302.50;146617;571;46021;-64
2023/12/21 09:05:57;;;;;;;;;55.50;44.25;;;;;13.52;63.23;100267.97;146611;639;46012;-64
2023/12/21 09:09:18;;;;;;;;;;;;;;;;;;;;;
2023/12/21 09:12:29;;;;;;;;;46.25;36.25;;;;;13.95;62.22;100298.00;146614;613;46012;-64
2023/12/21 09:15:26;;;;;;;;;50.25;39.50;;;;;14.05;61.71;100289.66;146614;591;46020;-65
2023/12/21 09:18:45;;;;;;;;;45.25;36.75;;;;;14.21;63.51;100294.47;146612;590;46013;-64
2023/12/21 09:21:52;;;;;;;;;45.75;36.75;;;;;14.37;61.76;100287.97;146613;611;46014;-63
2023/12/21 09:25:06;;;;;;;;;51.75;40.75;;;;;14.47;60.13;100271.75;146610;581;47030;-64
2023/12/21 09:28:08;;;;;;;;;46.25;38.00;;;;;14.67;60.74;100284.47;146614;597;46020;-63
2023/12/21 09:31:08;;;;;;;;;37.75;31.25;;;;;14.72;58.29;100294.22;146608;643;46016;-64
2023/12/21 09:34:13;;;;;;;;;42.50;35.00;;;;;14.79;60.74;100296.12;146612;569;46022;-65
2023/12/21 09:37:29;;;;;;;;;34.75;30.00;;;;;14.96;61.13;100282.69;146610;643;46016;-63
2023/12/21 09:40:32;;;;;;;;;35.50;31.50;;;;;15.05;57.65;100284.66;146613;582;46021;-63
2023/12/21 09:43:43;;;;;;;;;;;;;;;;;;;;;
2023/12/21 09:46:47;;;;;;;;;45.00;34.50;;;;;15.12;58.30;100277.00;146613;573;46021;-64
2023/12/21 09:50:24;;;;;;;;;41.75;34.00;;;;;15.04;60.00;100246.31;146612;593;46012;-65
2023/12/21 09:53:26;;;;;;;;;39.75;32.75;;;;;15.19;59.48;100260.63;146614;609;46010;-65
2023/12/21 09:57:02;;;;;;;;;40.25;32.00;;;;;14.78;61.43;100161.28;146607;563;47012;-65
2023/12/21 10:00:31;;;;;;;;;35.00;31.50;;;;;15.02;61.30;100174.06;146614;579;46010;-65
2023/12/21 10:03:28;;;;;;;;;28.75;26.75;;;;;15.66;57.42;100253.06;146610;569;46016;-65
2023/12/21 10:06:26;;;;;;;;;32.00;28.50;;;;;15.74;56.48;100240.22;146613;573;47010;-65
2023/12/21 10:09:21;;;;;;;;;31.75;29.00;;;;;15.73;54.31;100229.69;146611;569;46012;-65
2023/12/21 10:12:20;;;;;;;;;29.50;26.50;;;;;15.76;57.53;100237.63;146615;586;46010;-66
2023/12/21 10:15:30;;;;;;;;;30.50;25.75;;;;;15.65;57.73;100209.47;146612;604;46013;-65
2023/12/21 10:18:30;;;;;;;;;27.50;24.25;;;;;15.70;53.63;100220.09;146615;578;46010;-66
2023/12/21 10:21:27;;;;;;;;;27.50;25.00;;;;;15.64;53.85;100214.69;146614;599;45914;-66
2023/12/21 10:24:25;;;;;;;;;30.50;28.00;;;;;15.61;55.78;100217.22;146616;588;46010;-65
2023/12/21 10:27:29;;;;;;;;;26.75;22.50;;;;;15.64;55.06;100201.62;146613;589;46012;-66
2023/12/21 10:30:39;;;;;;;;;28.50;24.75;;;;;15.68;56.95;100206.97;146613;589;46020;-66
2023/12/21 10:33:57;;;;;;;;;26.00;23.25;;;;;15.75;57.04;100199.25;146612;608;46016;-66
2023/12/21 10:36:53;;;;;;;;;25.75;24.25;;;;;15.83;56.10;100195.97;146607;618;47021;-64
2023/12/21 10:39:56;;;;;;;;;27.25;24.25;;;;;15.97;54.63;100196.25;146609;582;46017;-65
2023/12/21 10:43:40;;;;;;;;;29.75;27.75;;;;;14.55;56.71;99933.72;146615;629;46010;-65
2023/12/21 10:46:35;;;;;;;;;24.25;22.00;;;;;16.16;54.33;100173.97;146610;599;46017;-66
2023/12/21 10:49:40;;;;;;;;;31.50;26.50;;;;;16.23;54.59;100167.13;146615;572;46010;-65
2023/12/21 10:52:46;;;;;;;;;31.25;24.75;;;;;16.32;54.67;100172.53;146610;566;46039;-64
2023/12/21 10:55:40;;;;;;;;;26.50;23.50;;;;;16.40;52.99;100168.34;146605;564;46020;-65
2023/12/21 10:58:42;;;;;;;;;27.75;26.25;;;;;16.35;51.50;100172.59;146612;602;46012;-65
2023/12/21 11:01:59;;;;;;;;;26.25;23.25;;;;;16.29;54.11;100169.84;146612;622;46021;-65
2023/12/21 11:05:14;;;;;;;;;26.50;23.50;;;;;16.26;54.02;100164.56;146614;644;46012;-65
2023/12/21 11:08:23;;;;;;;;;30.25;27.25;;;;;16.25;55.39;100174.16;146614;570;47011;-66
2023/12/21 11:11:35;;;;;;;;;29.25;24.25;;;;;16.25;54.96;100170.66;146611;642;46016;-64
2023/12/21 11:14:34;;;;;;;;;28.00;27.50;;;;;16.32;55.45;100175.16;146615;594;46010;-65
2023/12/21 11:17:35;;;;;;;;;28.50;23.25;;;;;16.36;52.87;100166.53;146610;607;46016;-64
2023/12/21 11:20:39;;;;;;;;;29.00;25.75;;;;;16.38;53.40;100165.66;146613;605;47010;-65
2023/12/21 11:23:51;;;;;;;;;25.25;25.00;;;;;16.47;54.40;100159.72;146611;619;46017;-65
2023/12/21 11:26:52;;;;;;;;;29.25;24.50;;;;;16.59;53.23;100159.97;146609;569;46020;-65
2023/12/21 11:29:58;;;;;;;;;28.25;26.75;;;;;16.56;55.13;100135.47;146610;610;46016;-64
2023/12/21 11:33:13;;;;;;;;;32.25;27.75;;;;;16.78;53.59;100152.47;146617;745;46020;-64
2023/12/21 11:36:13;;;;;;;;;27.75;26.00;;;;;16.85;52.74;100144.75;146608;582;46016;-64
2023/12/21 11:39:28;;;;;;;;;34.25;29.00;;;;;16.91;52.32;100133.47;146612;628;46010;-66
2023/12/21 11:42:39;;;;;;;;;41.75;33.50;;;;;16.98;53.84;100124.87;146611;636;46016;-64
2023/12/21 11:45:59;;;;;;;;;23.50;23.00;;;;;17.11;51.78;100122.44;146613;599;47010;-63
2023/12/21 11:49:01;;;;;;;;;23.00;22.25;;;;;17.14;51.80;100125.13;146608;633;46025;-64
2023/12/21 11:52:35;;;;;;;;;26.50;24.50;;;;;17.16;52.25;100112.91;146615;686;46021;-63
2023/12/21 11:55:42;;;;;;;;;21.00;20.00;;;;;17.25;50.41;100121.75;146613;583;46012;-65
2023/12/21 11:58:55;;;;;;;;;25.75;22.50;;;;;17.37;50.24;100126.31;146609;615;46020;-64
2023/12/21 12:02:17;;;;;;;;;22.25;21.25;;;;;17.41;51.13;100122.84;146612;616;46012;-64
2023/12/21 12:05:38;;;;;;;;;21.50;20.50;;;;;17.37;49.34;100115.81;146614;577;46020;-64
2023/12/21 12:08:48;;;;;;;;;24.75;22.50;;;;;17.35;50.70;100116.66;146609;617;47014;-65
2023/12/21 12:12:02;;;;;;;;;;;;;;;;;;;;;
2023/12/21 12:14:58;;;;;;;;;22.25;22.25;;;;;17.25;49.65;100121.75;146612;619;46017;-65
2023/12/21 12:17:54;;;;;;;;;24.50;20.75;;;;;17.24;49.61;100125.25;146615;581;46020;-64
2023/12/21 12:21:00;;;;;;;;;17.00;14.75;;;;;17.31;47.99;100120.97;146609;680;46016;-65
2023/12/21 12:23:53;;;;;;;;;17.25;16.25;;;;;17.39;47.55;100113.25;146615;578;46020;-65
2023/12/21 12:27:05;;;;;;;;;26.00;23.00;;;;;17.58;49.14;100115.25;146611;657;46016;-64
2023/12/21 12:29:59;;;;;;;;;15.25;14.50;;;;;17.90;46.90;100114.78;146607;673;47010;-65
2023/12/21 12:32:54;;;;;;;;;11.50;10.50;;;;;18.18;46.32;100119.47;146610;566;46016;-65
2023/12/21 12:35:55;;;;;;;;;15.75;15.75;;;;;18.45;45.36;100110.12;146613;593;46038;-65
2023/12/21 12:39:08;;;;;;;;;19.50;17.75;;;;;18.58;43.81;100098.00;146611;730;46016;-65
2023/12/21 12:42:10;;;;;;;;;16.00;16.00;;;;;18.63;44.02;100106.81;146614;565;46010;-65
2023/12/21 12:45:31;;;;;;;;;14.50;13.75;;;;;18.72;45.18;100106.84;146608;571;46014;-64
2023/12/21 12:48:27;;;;;;;;;17.00;15.00;;;;;18.87;45.23;100108.75;146614;572;46010;-64
2023/12/21 12:51:22;;;;;;;;;14.25;13.25;;;;;19.05;43.62;100106.28;146607;608;47013;-65
2023/12/21 12:54:23;;;;;;;;;18.00;17.00;;;;;19.27;42.38;100109.03;146614;596;46020;-65
2023/12/21 12:57:35;;;;;;;;;11.50;11.50;;;;;19.42;46.54;100100.38;146611;590;47012;-64
2023/12/21 13:00:32;;;;;;;;;17.00;14.75;;;;;19.51;43.23;100098.66;146606;564;46021;-65
2023/12/21 13:03:41;;;;;;;;;16.00;15.00;;;;;19.59;43.61;100093.44;146612;618;46016;-64
2023/12/21 13:06:35;;;;;;;;;14.00;14.00;;;;;19.52;41.76;100089.03;146612;589;47010;-64
2023/12/21 13:09:30;;;;;;;;;12.50;11.50;;;;;19.34;41.44;100093.28;146612;681;46016;-64
2023/12/21 13:12:25;;;;;;;;;19.25;16.75;;;;;19.26;42.33;100095.03;146611;695;46014;-65
2023/12/21 13:15:23;;;;;;;;;18.25;16.50;;;;;19.20;41.92;100092.34;146608;603;47016;-65
2023/12/21 13:18:20;;;;;;;;;15.75;14.00;;;;;19.19;41.97;100090.63;146612;597;46020;-65
2023/12/21 13:21:25;;;;;;;;;16.25;15.25;;;;;19.17;41.10;100088.84;146610;633;46915;-66
2023/12/21 13:24:28;;;;;;;;;21.25;20.75;;;;;19.06;41.58;100092.25;146616;578;46010;-65
2023/12/21 13:27:43;;;;;;;;;26.25;22.75;;;;;17.75;41.87;99872.47;146608;609;46014;-65
2023/12/21 13:30:43;;;;;;;;;20.50;19.00;;;;;18.87;42.71;100096.50;146606;576;46010;-64
2023/12/21 13:33:36;;;;;;;;;14.75;14.00;;;;;18.73;41.14;100095.53;146612;593;46014;-65
2023/12/21 13:36:56;;;;;;;;;23.50;21.25;;;;;18.67;43.52;100101.56;146614;602;46014;-65
2023/12/21 13:39:55;;;;;;;;;28.25;25.75;;;;;18.74;45.96;100099.03;146610;581;47014;-65
2023/12/21 13:42:56;;;;;;;;;23.75;22.25;;;;;18.87;45.64;100101.75;146613;592;46011;-66
2023/12/21 13:45:48;;;;;;;;;24.75;21.25;;;;;18.74;42.24;100097.28;146608;571;47016;-65
2023/12/21 13:49:03;;;;;;;;;22.50;22.50;;;;;18.55;42.90;100106.72;146611;747;47010;-65
2023/12/21 13:51:56;;;;;;;;;27.25;26.50;;;;;18.34;42.49;100096.88;146610;571;46016;-66
2023/12/21 13:54:49;;;;;;;;;20.75;17.00;;;;;18.18;44.58;100089.75;146615;636;46010;-65
2023/12/21 13:57:56;;;;;;;;;26.25;22.75;;;;;18.14;45.32;100095.81;146610;580;46016;-65
2023/12/21 14:01:01;;;;;;;;;25.25;22.00;;;;;18.03;43.62;100106.19;146609;589;46020;-66
2023/12/21 14:04:16;;;;;;;;;26.25;24.25;;;;;17.80;44.21;100105.06;146612;635;46017;-67
2023/12/21 14:07:11;;;;;;;;;27.00;23.75;;;;;17.66;44.76;100102.22;146613;569;46010;-65
2023/12/21 14:10:16;;;;;;;;;27.50;25.25;;;;;16.04;48.82;99831.16;146604;647;47016;-66
2023/12/21 14:13:17;;;;;;;;;27.25;25.75;;;;;17.57;47.05;100109.97;146613;586;46021;-67
2023/12/21 14:16:11;;;;;;;;;28.25;24.25;;;;;17.44;45.64;100093.19;146610;585;46012;-66
2023/12/21 14:19:08;;;;;;;;;24.25;23.00;;;;;17.10;46.01;100097.97;146610;578;47010;-64
2023/12/21 14:22:17;;;;;;;;;26.50;23.50;;;;;16.84;45.66;100093.22;146611;605;46016;-65
2023/12/21 14:25:17;;;;;;;;;20.25;17.75;;;;;16.61;46.37;100090.22;146614;625;46010;-66
2023/12/21 14:28:12;;;;;;;;;24.25;20.75;;;;;16.48;46.72;100093.47;146611;616;46017;-66
2023/12/21 14:31:05;;;;;;;;;21.75;20.75;;;;;16.27;45.71;100091.34;146605;573;46020;-65